sensor_id;sensor_type;location;lat;lon;timestamp;P1;durP1;ratioP1;P2;durP2;ratioP2
18544;SDS011;9402;51.460;7.276;2023-04-24T00:00:23;6.50;;;0.93;;
18544;SDS011;9402;51.460;7.276;2023-04-24T00:02:27;6.17;;;1.10;;
18544;SDS011;9402;51.460;7.276;2023-04-24T00:04:30;6.60;;;0.90;;
18544;SDS011;9402;51.460;7.276;2023-04-24T00:06:32;6.40;;;1.00;;
18544;SDS011;9402;51.460;7.276;2023-04-24T00:08:37;4.97;;;0.90;;
18544;SDS011;9402;51.460;7.276;2023-04-24T00:10:39;6.97;;;0.90;;
18544;SDS011;9402;51.460;7.276;2023-04-24T00:12:42;5.70;;;1.00;;
18544;SDS011;9402;51.460;7.276;2023-04-24T00:14:44;5.37;;;1.00;;
18544;SDS011;9402;51.460;7.276;2023-04-24T00:16:46;5.67;;;0.90;;
18544;SDS011;9402;51.460;7.276;2023-04-24T00:18:50;6.03;;;1.00;;
18544;SDS011;9402;51.460;7.276;2023-04-24T00:20:52;5.37;;;1.10;;
18544;SDS011;9402;51.460;7.276;2023-04-24T00:22:55;5.90;;;1.27;;
18544;SDS011;9402;51.460;7.276;2023-04-24T00:24:57;8.10;;;1.07;;
18544;SDS011;9402;51.460;7.276;2023-04-24T00:26:59;5.80;;;1.00;;
18544;SDS011;9402;51.460;7.276;2023-04-24T00:29:02;5.87;;;1.20;;
18544;SDS011;9402;51.460;7.276;2023-04-24T00:31:04;7.27;;;1.73;;
18544;SDS011;9402;51.460;7.276;2023-04-24T00:33:07;8.73;;;1.33;;
18544;SDS011;9402;51.460;7.276;2023-04-24T00:35:11;5.17;;;0.90;;
18544;SDS011;9402;51.460;7.276;2023-04-24T00:37:14;5.33;;;1.10;;
18544;SDS011;9402;51.460;7.276;2023-04-24T00:39:16;4.80;;;1.00;;
18544;SDS011;9402;51.460;7.276;2023-04-24T00:41:19;7.80;;;1.30;;
18544;SDS011;9402;51.460;7.276;2023-04-24T00:43:22;6.77;;;1.33;;
18544;SDS011;9402;51.460;7.276;2023-04-24T00:45:24;5.07;;;1.13;;
18544;SDS011;9402;51.460;7.276;2023-04-24T00:47:27;7.80;;;1.30;;
18544;SDS011;9402;51.460;7.276;2023-04-24T00:49:30;6.00;;;1.27;;
18544;SDS011;9402;51.460;7.276;2023-04-24T00:51:34;5.60;;;1.23;;
18544;SDS011;9402;51.460;7.276;2023-04-24T00:53:36;6.63;;;1.50;;
18544;SDS011;9402;51.460;7.276;2023-04-24T00:55:39;5.00;;;1.10;;
18544;SDS011;9402;51.460;7.276;2023-04-24T00:57:41;7.20;;;1.20;;
18544;SDS011;9402;51.460;7.276;2023-04-24T00:59:43;5.87;;;1.47;;
18544;SDS011;9402;51.460;7.276;2023-04-24T01:01:46;8.20;;;1.30;;
18544;SDS011;9402;51.460;7.276;2023-04-24T01:03:48;4.80;;;0.90;;
18544;SDS011;9402;51.460;7.276;2023-04-24T01:05:52;5.87;;;1.30;;
18544;SDS011;9402;51.460;7.276;2023-04-24T01:07:56;6.20;;;1.40;;
18544;SDS011;9402;51.460;7.276;2023-04-24T01:09:58;8.50;;;1.80;;
18544;SDS011;9402;51.460;7.276;2023-04-24T01:12:01;6.23;;;1.30;;
18544;SDS011;9402;51.460;7.276;2023-04-24T01:14:03;6.50;;;1.33;;
18544;SDS011;9402;51.460;7.276;2023-04-24T01:16:06;6.63;;;1.20;;
18544;SDS011;9402;51.460;7.276;2023-04-24T01:18:08;6.27;;;1.60;;
18544;SDS011;9402;51.460;7.276;2023-04-24T01:20:10;5.43;;;1.27;;
18544;SDS011;9402;51.460;7.276;2023-04-24T01:22:15;6.07;;;1.40;;
18544;SDS011;9402;51.460;7.276;2023-04-24T01:24:17;5.83;;;1.50;;
18544;SDS011;9402;51.460;7.276;2023-04-24T01:26:21;7.47;;;1.90;;
18544;SDS011;9402;51.460;7.276;2023-04-24T01:28:25;8.33;;;1.60;;
18544;SDS011;9402;51.460;7.276;2023-04-24T01:30:28;5.53;;;1.20;;
18544;SDS011;9402;51.460;7.276;2023-04-24T01:32:31;7.27;;;1.30;;
18544;SDS011;9402;51.460;7.276;2023-04-24T01:34:33;5.40;;;1.50;;
18544;SDS011;9402;51.460;7.276;2023-04-24T01:36:36;6.87;;;1.70;;
18544;SDS011;9402;51.460;7.276;2023-04-24T01:38:40;5.73;;;1.37;;
18544;SDS011;9402;51.460;7.276;2023-04-24T01:40:43;6.97;;;1.60;;
18544;SDS011;9402;51.460;7.276;2023-04-24T01:42:45;8.13;;;2.10;;
18544;SDS011;9402;51.460;7.276;2023-04-24T01:44:47;7.40;;;2.10;;
18544;SDS011;9402;51.460;7.276;2023-04-24T01:46:51;7.10;;;1.50;;
18544;SDS011;9402;51.460;7.276;2023-04-24T01:48:54;8.97;;;1.80;;
18544;SDS011;9402;51.460;7.276;2023-04-24T01:50:56;6.20;;;1.80;;
18544;SDS011;9402;51.460;7.276;2023-04-24T01:52:58;8.47;;;1.70;;
18544;SDS011;9402;51.460;7.276;2023-04-24T01:55:02;7.33;;;2.13;;
18544;SDS011;9402;51.460;7.276;2023-04-24T01:57:05;6.43;;;1.60;;
18544;SDS011;9402;51.460;7.276;2023-04-24T01:59:09;6.73;;;1.70;;
18544;SDS011;9402;51.460;7.276;2023-04-24T02:01:14;6.20;;;1.80;;
18544;SDS011;9402;51.460;7.276;2023-04-24T02:03:18;8.33;;;2.00;;
18544;SDS011;9402;51.460;7.276;2023-04-24T02:05:21;7.90;;;1.70;;
18544;SDS011;9402;51.460;7.276;2023-04-24T02:07:23;6.20;;;1.87;;
18544;SDS011;9402;51.460;7.276;2023-04-24T02:09:26;6.50;;;1.63;;
18544;SDS011;9402;51.460;7.276;2023-04-24T02:11:29;8.30;;;1.90;;
18544;SDS011;9402;51.460;7.276;2023-04-24T02:13:32;9.73;;;2.70;;
18544;SDS011;9402;51.460;7.276;2023-04-24T02:15:34;8.67;;;3.17;;
18544;SDS011;9402;51.460;7.276;2023-04-24T02:17:37;8.73;;;3.30;;
18544;SDS011;9402;51.460;7.276;2023-04-24T02:19:39;11.90;;;4.00;;
18544;SDS011;9402;51.460;7.276;2023-04-24T02:21:42;14.40;;;4.47;;
18544;SDS011;9402;51.460;7.276;2023-04-24T02:23:44;10.23;;;3.70;;
18544;SDS011;9402;51.460;7.276;2023-04-24T02:25:46;15.73;;;4.67;;
18544;SDS011;9402;51.460;7.276;2023-04-24T02:27:50;11.30;;;4.50;;
18544;SDS011;9402;51.460;7.276;2023-04-24T02:29:52;10.87;;;4.50;;
18544;SDS011;9402;51.460;7.276;2023-04-24T02:31:55;12.10;;;4.80;;
18544;SDS011;9402;51.460;7.276;2023-04-24T02:33:57;11.37;;;4.13;;
18544;SDS011;9402;51.460;7.276;2023-04-24T02:35:59;13.67;;;4.70;;
18544;SDS011;9402;51.460;7.276;2023-04-24T02:38:02;9.53;;;4.53;;
18544;SDS011;9402;51.460;7.276;2023-04-24T02:40:05;13.43;;;5.27;;
18544;SDS011;9402;51.460;7.276;2023-04-24T02:42:09;15.43;;;5.30;;
18544;SDS011;9402;51.460;7.276;2023-04-24T02:44:13;11.67;;;6.00;;
18544;SDS011;9402;51.460;7.276;2023-04-24T02:46:15;13.13;;;5.53;;
18544;SDS011;9402;51.460;7.276;2023-04-24T02:48:17;11.43;;;5.17;;
18544;SDS011;9402;51.460;7.276;2023-04-24T02:50:20;14.20;;;5.97;;
18544;SDS011;9402;51.460;7.276;2023-04-24T02:52:23;13.07;;;5.80;;
18544;SDS011;9402;51.460;7.276;2023-04-24T02:54:25;13.10;;;5.90;;
18544;SDS011;9402;51.460;7.276;2023-04-24T02:56:27;19.03;;;7.10;;
18544;SDS011;9402;51.460;7.276;2023-04-24T02:58:30;18.90;;;7.60;;
18544;SDS011;9402;51.460;7.276;2023-04-24T03:00:33;15.67;;;7.53;;
18544;SDS011;9402;51.460;7.276;2023-04-24T03:02:36;17.43;;;6.13;;
18544;SDS011;9402;51.460;7.276;2023-04-24T03:04:38;14.60;;;6.60;;
18544;SDS011;9402;51.460;7.276;2023-04-24T03:06:42;12.30;;;6.10;;
18544;SDS011;9402;51.460;7.276;2023-04-24T03:08:45;15.67;;;6.83;;
18544;SDS011;9402;51.460;7.276;2023-04-24T03:10:48;15.53;;;6.80;;
18544;SDS011;9402;51.460;7.276;2023-04-24T03:12:50;14.40;;;6.73;;
18544;SDS011;9402;51.460;7.276;2023-04-24T03:14:52;16.03;;;6.60;;
18544;SDS011;9402;51.460;7.276;2023-04-24T03:16:56;13.90;;;6.97;;
18544;SDS011;9402;51.460;7.276;2023-04-24T03:18:59;16.83;;;6.90;;
18544;SDS011;9402;51.460;7.276;2023-04-24T03:21:01;15.93;;;7.43;;
18544;SDS011;9402;51.460;7.276;2023-04-24T03:23:03;13.60;;;6.60;;
18544;SDS011;9402;51.460;7.276;2023-04-24T03:25:06;17.80;;;7.53;;
18544;SDS011;9402;51.460;7.276;2023-04-24T03:27:09;17.30;;;7.67;;
18544;SDS011;9402;51.460;7.276;2023-04-24T03:29:11;17.33;;;7.77;;
18544;SDS011;9402;51.460;7.276;2023-04-24T03:31:14;19.00;;;8.17;;
18544;SDS011;9402;51.460;7.276;2023-04-24T03:33:18;17.97;;;7.40;;
18544;SDS011;9402;51.460;7.276;2023-04-24T03:35:20;14.57;;;7.60;;
18544;SDS011;9402;51.460;7.276;2023-04-24T03:37:23;18.63;;;8.50;;
18544;SDS011;9402;51.460;7.276;2023-04-24T03:39:26;22.80;;;9.70;;
18544;SDS011;9402;51.460;7.276;2023-04-24T03:41:28;17.37;;;8.40;;
18544;SDS011;9402;51.460;7.276;2023-04-24T03:43:31;17.07;;;8.73;;
18544;SDS011;9402;51.460;7.276;2023-04-24T03:45:34;16.27;;;8.10;;
18544;SDS011;9402;51.460;7.276;2023-04-24T03:47:36;16.50;;;8.47;;
18544;SDS011;9402;51.460;7.276;2023-04-24T03:49:40;16.90;;;8.27;;
18544;SDS011;9402;51.460;7.276;2023-04-24T03:51:43;20.37;;;8.90;;
18544;SDS011;9402;51.460;7.276;2023-04-24T03:53:45;20.57;;;9.27;;
18544;SDS011;9402;51.460;7.276;2023-04-24T03:55:47;18.87;;;8.97;;
18544;SDS011;9402;51.460;7.276;2023-04-24T03:57:50;21.97;;;9.53;;
18544;SDS011;9402;51.460;7.276;2023-04-24T03:59:52;18.77;;;9.60;;
18544;SDS011;9402;51.460;7.276;2023-04-24T04:01:55;15.73;;;8.57;;
18544;SDS011;9402;51.460;7.276;2023-04-24T04:03:57;19.20;;;9.90;;
18544;SDS011;9402;51.460;7.276;2023-04-24T04:06:01;20.57;;;10.20;;
18544;SDS011;9402;51.460;7.276;2023-04-24T04:08:03;22.53;;;9.60;;
18544;SDS011;9402;51.460;7.276;2023-04-24T04:10:06;20.67;;;10.10;;
18544;SDS011;9402;51.460;7.276;2023-04-24T04:12:09;19.57;;;10.30;;
18544;SDS011;9402;51.460;7.276;2023-04-24T04:14:12;18.40;;;9.20;;
18544;SDS011;9402;51.460;7.276;2023-04-24T04:16:14;16.07;;;9.47;;
18544;SDS011;9402;51.460;7.276;2023-04-24T04:18:17;19.20;;;9.07;;
18544;SDS011;9402;51.460;7.276;2023-04-24T04:20:19;18.23;;;9.33;;
18544;SDS011;9402;51.460;7.276;2023-04-24T04:22:23;19.07;;;9.33;;
18544;SDS011;9402;51.460;7.276;2023-04-24T04:24:25;19.47;;;9.83;;
18544;SDS011;9402;51.460;7.276;2023-04-24T04:26:28;18.10;;;8.83;;
18544;SDS011;9402;51.460;7.276;2023-04-24T04:28:32;17.53;;;10.20;;
18544;SDS011;9402;51.460;7.276;2023-04-24T04:30:34;22.83;;;9.57;;
18544;SDS011;9402;51.460;7.276;2023-04-24T04:32:38;19.10;;;9.10;;
18544;SDS011;9402;51.460;7.276;2023-04-24T04:34:40;22.90;;;11.03;;
18544;SDS011;9402;51.460;7.276;2023-04-24T04:36:45;21.60;;;9.67;;
18544;SDS011;9402;51.460;7.276;2023-04-24T04:38:48;22.93;;;10.00;;
18544;SDS011;9402;51.460;7.276;2023-04-24T04:40:51;22.00;;;9.77;;
18544;SDS011;9402;51.460;7.276;2023-04-24T04:42:53;20.07;;;9.47;;
18544;SDS011;9402;51.460;7.276;2023-04-24T04:44:55;22.27;;;10.40;;
18544;SDS011;9402;51.460;7.276;2023-04-24T04:46:58;22.37;;;10.60;;
18544;SDS011;9402;51.460;7.276;2023-04-24T04:49:00;20.37;;;9.70;;
18544;SDS011;9402;51.460;7.276;2023-04-24T04:51:03;19.40;;;9.87;;
18544;SDS011;9402;51.460;7.276;2023-04-24T04:53:05;17.83;;;10.77;;
18544;SDS011;9402;51.460;7.276;2023-04-24T04:55:09;19.20;;;10.60;;
18544;SDS011;9402;51.460;7.276;2023-04-24T04:57:13;25.00;;;11.20;;
18544;SDS011;9402;51.460;7.276;2023-04-24T04:59:15;18.50;;;10.13;;
18544;SDS011;9402;51.460;7.276;2023-04-24T05:01:18;22.13;;;10.30;;
18544;SDS011;9402;51.460;7.276;2023-04-24T05:03:21;22.33;;;10.17;;
18544;SDS011;9402;51.460;7.276;2023-04-24T05:05:23;20.47;;;11.00;;
18544;SDS011;9402;51.460;7.276;2023-04-24T05:07:25;24.80;;;9.90;;
18544;SDS011;9402;51.460;7.276;2023-04-24T05:09:29;21.40;;;9.53;;
18544;SDS011;9402;51.460;7.276;2023-04-24T05:11:32;22.90;;;9.70;;
18544;SDS011;9402;51.460;7.276;2023-04-24T05:13:35;21.03;;;9.27;;
18544;SDS011;9402;51.460;7.276;2023-04-24T05:15:37;16.60;;;9.10;;
18544;SDS011;9402;51.460;7.276;2023-04-24T05:17:40;19.63;;;9.90;;
18544;SDS011;9402;51.460;7.276;2023-04-24T05:19:42;22.93;;;10.40;;
18544;SDS011;9402;51.460;7.276;2023-04-24T05:21:44;16.33;;;9.03;;
18544;SDS011;9402;51.460;7.276;2023-04-24T05:23:47;25.30;;;9.83;;
18544;SDS011;9402;51.460;7.276;2023-04-24T05:25:49;18.40;;;8.40;;
18544;SDS011;9402;51.460;7.276;2023-04-24T05:27:53;19.83;;;8.40;;
18544;SDS011;9402;51.460;7.276;2023-04-24T05:29:55;17.10;;;9.10;;
18544;SDS011;9402;51.460;7.276;2023-04-24T05:31:58;18.40;;;8.00;;
18544;SDS011;9402;51.460;7.276;2023-04-24T05:34:00;21.47;;;8.40;;
18544;SDS011;9402;51.460;7.276;2023-04-24T05:36:03;19.07;;;7.87;;
18544;SDS011;9402;51.460;7.276;2023-04-24T05:38:06;15.50;;;7.90;;
18544;SDS011;9402;51.460;7.276;2023-04-24T05:40:09;16.50;;;8.17;;
18544;SDS011;9402;51.460;7.276;2023-04-24T05:42:12;22.40;;;9.10;;
18544;SDS011;9402;51.460;7.276;2023-04-24T05:44:15;22.90;;;9.03;;
18544;SDS011;9402;51.460;7.276;2023-04-24T05:46:18;17.40;;;8.53;;
18544;SDS011;9402;51.460;7.276;2023-04-24T05:48:20;15.90;;;8.10;;
18544;SDS011;9402;51.460;7.276;2023-04-24T05:50:23;17.37;;;8.20;;
18544;SDS011;9402;51.460;7.276;2023-04-24T05:52:25;18.77;;;8.47;;
18544;SDS011;9402;51.460;7.276;2023-04-24T05:54:28;18.93;;;8.40;;
18544;SDS011;9402;51.460;7.276;2023-04-24T05:56:30;19.57;;;8.97;;
18544;SDS011;9402;51.460;7.276;2023-04-24T05:58:32;19.00;;;9.10;;
18544;SDS011;9402;51.460;7.276;2023-04-24T06:00:36;17.10;;;10.10;;
18544;SDS011;9402;51.460;7.276;2023-04-24T06:02:39;21.17;;;10.17;;
18544;SDS011;9402;51.460;7.276;2023-04-24T06:04:42;18.80;;;10.10;;
18544;SDS011;9402;51.460;7.276;2023-04-24T06:06:44;21.07;;;10.07;;
18544;SDS011;9402;51.460;7.276;2023-04-24T06:08:51;16.77;;;9.30;;
18544;SDS011;9402;51.460;7.276;2023-04-24T06:10:53;23.10;;;9.53;;
18544;SDS011;9402;51.460;7.276;2023-04-24T06:12:55;18.93;;;10.50;;
18544;SDS011;9402;51.460;7.276;2023-04-24T06:15:00;16.80;;;8.33;;
18544;SDS011;9402;51.460;7.276;2023-04-24T06:17:04;22.57;;;9.47;;
18544;SDS011;9402;51.460;7.276;2023-04-24T06:19:06;19.03;;;8.23;;
18544;SDS011;9402;51.460;7.276;2023-04-24T06:21:08;16.37;;;8.40;;
18544;SDS011;9402;51.460;7.276;2023-04-24T06:23:11;18.23;;;8.73;;
18544;SDS011;9402;51.460;7.276;2023-04-24T06:25:13;14.40;;;6.63;;
18544;SDS011;9402;51.460;7.276;2023-04-24T06:27:16;14.97;;;7.40;;
18544;SDS011;9402;51.460;7.276;2023-04-24T06:29:18;14.07;;;7.23;;
18544;SDS011;9402;51.460;7.276;2023-04-24T06:31:20;18.43;;;6.67;;
18544;SDS011;9402;51.460;7.276;2023-04-24T06:33:24;17.30;;;6.13;;
18544;SDS011;9402;51.460;7.276;2023-04-24T06:35:26;12.77;;;6.07;;
18544;SDS011;9402;51.460;7.276;2023-04-24T06:37:29;15.03;;;6.40;;
18544;SDS011;9402;51.460;7.276;2023-04-24T06:39:32;13.23;;;6.70;;
18544;SDS011;9402;51.460;7.276;2023-04-24T06:41:34;19.30;;;6.57;;
18544;SDS011;9402;51.460;7.276;2023-04-24T06:43:37;17.60;;;6.70;;
18544;SDS011;9402;51.460;7.276;2023-04-24T06:45:39;12.90;;;6.37;;
18544;SDS011;9402;51.460;7.276;2023-04-24T06:47:43;10.93;;;5.83;;
18544;SDS011;9402;51.460;7.276;2023-04-24T06:49:47;13.13;;;6.47;;
18544;SDS011;9402;51.460;7.276;2023-04-24T06:51:50;12.10;;;6.20;;
18544;SDS011;9402;51.460;7.276;2023-04-24T06:53:53;15.50;;;6.70;;
18544;SDS011;9402;51.460;7.276;2023-04-24T06:55:56;13.53;;;6.43;;
18544;SDS011;9402;51.460;7.276;2023-04-24T06:57:58;14.60;;;5.73;;
18544;SDS011;9402;51.460;7.276;2023-04-24T07:00:00;12.40;;;6.57;;
18544;SDS011;9402;51.460;7.276;2023-04-24T07:02:05;12.40;;;6.00;;
18544;SDS011;9402;51.460;7.276;2023-04-24T07:04:07;12.73;;;6.40;;
18544;SDS011;9402;51.460;7.276;2023-04-24T07:06:11;19.43;;;7.30;;
18544;SDS011;9402;51.460;7.276;2023-04-24T07:08:13;12.97;;;6.70;;
18544;SDS011;9402;51.460;7.276;2023-04-24T07:10:17;12.33;;;6.40;;
18544;SDS011;9402;51.460;7.276;2023-04-24T07:12:20;11.93;;;6.70;;
18544;SDS011;9402;51.460;7.276;2023-04-24T07:14:22;13.57;;;6.57;;
18544;SDS011;9402;51.460;7.276;2023-04-24T07:16:24;13.50;;;6.43;;
18544;SDS011;9402;51.460;7.276;2023-04-24T07:18:27;13.63;;;6.70;;
18544;SDS011;9402;51.460;7.276;2023-04-24T07:20:29;12.73;;;5.80;;
18544;SDS011;9402;51.460;7.276;2023-04-24T07:22:34;13.87;;;5.90;;
18544;SDS011;9402;51.460;7.276;2023-04-24T07:24:36;13.03;;;5.43;;
18544;SDS011;9402;51.460;7.276;2023-04-24T07:26:39;12.00;;;4.93;;
18544;SDS011;9402;51.460;7.276;2023-04-24T07:28:41;12.90;;;5.10;;
18544;SDS011;9402;51.460;7.276;2023-04-24T07:30:43;10.03;;;4.60;;
18544;SDS011;9402;51.460;7.276;2023-04-24T07:32:46;9.80;;;3.50;;
18544;SDS011;9402;51.460;7.276;2023-04-24T07:34:48;8.70;;;3.70;;
18544;SDS011;9402;51.460;7.276;2023-04-24T07:36:51;11.00;;;4.20;;
18544;SDS011;9402;51.460;7.276;2023-04-24T07:38:55;8.70;;;3.33;;
18544;SDS011;9402;51.460;7.276;2023-04-24T07:40:57;9.17;;;3.60;;
18544;SDS011;9402;51.460;7.276;2023-04-24T07:42:59;9.80;;;3.53;;
18544;SDS011;9402;51.460;7.276;2023-04-24T07:45:02;10.87;;;4.20;;
18544;SDS011;9402;51.460;7.276;2023-04-24T07:47:05;12.20;;;4.50;;
18544;SDS011;9402;51.460;7.276;2023-04-24T07:49:07;12.00;;;4.07;;
18544;SDS011;9402;51.460;7.276;2023-04-24T07:51:10;9.10;;;3.60;;
18544;SDS011;9402;51.460;7.276;2023-04-24T07:53:13;9.57;;;4.40;;
18544;SDS011;9402;51.460;7.276;2023-04-24T07:55:17;11.67;;;3.10;;
18544;SDS011;9402;51.460;7.276;2023-04-24T07:57:19;7.30;;;2.20;;
18544;SDS011;9402;51.460;7.276;2023-04-24T07:59:21;8.47;;;2.20;;
18544;SDS011;9402;51.460;7.276;2023-04-24T08:01:24;7.87;;;2.30;;
18544;SDS011;9402;51.460;7.276;2023-04-24T08:03:27;6.63;;;2.17;;
18544;SDS011;9402;51.460;7.276;2023-04-24T08:05:29;7.00;;;2.10;;
18544;SDS011;9402;51.460;7.276;2023-04-24T08:07:31;6.23;;;1.73;;
18544;SDS011;9402;51.460;7.276;2023-04-24T08:09:35;5.90;;;1.40;;
18544;SDS011;9402;51.460;7.276;2023-04-24T08:11:39;6.50;;;1.50;;
18544;SDS011;9402;51.460;7.276;2023-04-24T08:13:41;5.73;;;1.10;;
18544;SDS011;9402;51.460;7.276;2023-04-24T08:15:43;9.13;;;1.10;;
18544;SDS011;9402;51.460;7.276;2023-04-24T08:17:46;4.60;;;0.80;;
18544;SDS011;9402;51.460;7.276;2023-04-24T08:19:48;5.20;;;0.90;;
18544;SDS011;9402;51.460;7.276;2023-04-24T08:21:52;5.00;;;0.90;;
18544;SDS011;9402;51.460;7.276;2023-04-24T08:23:55;4.80;;;1.00;;
18544;SDS011;9402;51.460;7.276;2023-04-24T08:25:57;5.50;;;1.00;;
18544;SDS011;9402;51.460;7.276;2023-04-24T08:28:01;5.07;;;0.90;;
18544;SDS011;9402;51.460;7.276;2023-04-24T08:30:04;6.50;;;1.07;;
18544;SDS011;9402;51.460;7.276;2023-04-24T08:32:07;5.73;;;1.00;;
18544;SDS011;9402;51.460;7.276;2023-04-24T08:34:10;5.47;;;1.00;;
18544;SDS011;9402;51.460;7.276;2023-04-24T08:36:12;5.00;;;0.93;;
18544;SDS011;9402;51.460;7.276;2023-04-24T08:38:14;4.63;;;0.80;;
18544;SDS011;9402;51.460;7.276;2023-04-24T08:40:17;5.73;;;0.80;;
18544;SDS011;9402;51.460;7.276;2023-04-24T08:42:19;4.60;;;0.80;;
18544;SDS011;9402;51.460;7.276;2023-04-24T08:44:23;5.73;;;1.00;;
18544;SDS011;9402;51.460;7.276;2023-04-24T08:46:26;6.10;;;1.00;;
18544;SDS011;9402;51.460;7.276;2023-04-24T08:48:28;5.10;;;0.80;;
18544;SDS011;9402;51.460;7.276;2023-04-24T08:50:31;6.47;;;1.10;;
18544;SDS011;9402;51.460;7.276;2023-04-24T08:52:34;5.20;;;0.90;;
18544;SDS011;9402;51.460;7.276;2023-04-24T08:54:36;5.20;;;1.13;;
18544;SDS011;9402;51.460;7.276;2023-04-24T08:56:39;5.67;;;1.00;;
18544;SDS011;9402;51.460;7.276;2023-04-24T08:58:42;5.77;;;1.10;;
18544;SDS011;9402;51.460;7.276;2023-04-24T09:00:46;5.93;;;1.20;;
18544;SDS011;9402;51.460;7.276;2023-04-24T09:02:49;5.10;;;1.10;;
18544;SDS011;9402;51.460;7.276;2023-04-24T09:04:53;7.20;;;1.10;;
18544;SDS011;9402;51.460;7.276;2023-04-24T09:06:56;8.53;;;1.20;;
18544;SDS011;9402;51.460;7.276;2023-04-24T09:08:59;5.23;;;1.00;;
18544;SDS011;9402;51.460;7.276;2023-04-24T09:11:03;4.90;;;1.00;;
18544;SDS011;9402;51.460;7.276;2023-04-24T09:13:05;6.20;;;1.20;;
18544;SDS011;9402;51.460;7.276;2023-04-24T09:15:09;6.33;;;1.23;;
18544;SDS011;9402;51.460;7.276;2023-04-24T09:17:13;7.10;;;1.50;;
18544;SDS011;9402;51.460;7.276;2023-04-24T09:19:16;7.20;;;1.30;;
18544;SDS011;9402;51.460;7.276;2023-04-24T09:21:19;6.13;;;1.20;;
18544;SDS011;9402;51.460;7.276;2023-04-24T09:23:23;5.73;;;1.10;;
18544;SDS011;9402;51.460;7.276;2023-04-24T09:25:30;5.07;;;1.00;;
18544;SDS011;9402;51.460;7.276;2023-04-24T09:27:33;6.20;;;1.30;;
18544;SDS011;9402;51.460;7.276;2023-04-24T09:29:36;7.27;;;1.60;;
18544;SDS011;9402;51.460;7.276;2023-04-24T09:31:38;6.33;;;1.40;;
18544;SDS011;9402;51.460;7.276;2023-04-24T09:33:44;7.27;;;1.47;;
18544;SDS011;9402;51.460;7.276;2023-04-24T09:35:55;7.30;;;1.53;;
18544;SDS011;9402;51.460;7.276;2023-04-24T09:37:59;5.80;;;1.20;;
18544;SDS011;9402;51.460;7.276;2023-04-24T09:40:11;8.50;;;1.40;;
18544;SDS011;9402;51.460;7.276;2023-04-24T09:42:14;6.57;;;1.60;;
18544;SDS011;9402;51.460;7.276;2023-04-24T09:44:17;7.77;;;1.30;;
18544;SDS011;9402;51.460;7.276;2023-04-24T09:46:20;6.13;;;1.40;;
18544;SDS011;9402;51.460;7.276;2023-04-24T09:48:30;7.33;;;1.70;;
18544;SDS011;9402;51.460;7.276;2023-04-24T09:50:34;9.03;;;1.93;;
18544;SDS011;9402;51.460;7.276;2023-04-24T09:52:39;8.07;;;2.27;;
18544;SDS011;9402;51.460;7.276;2023-04-24T09:54:42;10.00;;;2.40;;
18544;SDS011;9402;51.460;7.276;2023-04-24T09:56:54;9.40;;;2.60;;
18544;SDS011;9402;51.460;7.276;2023-04-24T09:59:03;8.77;;;2.67;;
18544;SDS011;9402;51.460;7.276;2023-04-24T10:01:06;9.20;;;2.60;;
18544;SDS011;9402;51.460;7.276;2023-04-24T10:03:09;8.80;;;2.40;;
18544;SDS011;9402;51.460;7.276;2023-04-24T10:05:11;13.50;;;3.43;;
18544;SDS011;9402;51.460;7.276;2023-04-24T10:07:15;10.07;;;3.00;;
18544;SDS011;9402;51.460;7.276;2023-04-24T10:09:18;8.73;;;3.40;;
18544;SDS011;9402;51.460;7.276;2023-04-24T10:11:21;9.33;;;3.03;;
18544;SDS011;9402;51.460;7.276;2023-04-24T10:13:24;10.07;;;3.03;;
18544;SDS011;9402;51.460;7.276;2023-04-24T10:15:26;9.07;;;3.00;;
18544;SDS011;9402;51.460;7.276;2023-04-24T10:17:29;11.03;;;2.90;;
18544;SDS011;9402;51.460;7.276;2023-04-24T10:19:31;9.27;;;3.03;;
18544;SDS011;9402;51.460;7.276;2023-04-24T10:21:35;10.27;;;3.40;;
18544;SDS011;9402;51.460;7.276;2023-04-24T10:23:43;7.73;;;3.00;;
18544;SDS011;9402;51.460;7.276;2023-04-24T10:25:46;9.00;;;3.40;;
18544;SDS011;9402;51.460;7.276;2023-04-24T10:27:50;9.27;;;2.73;;
18544;SDS011;9402;51.460;7.276;2023-04-24T10:29:53;10.20;;;3.57;;
18544;SDS011;9402;51.460;7.276;2023-04-24T10:31:55;10.93;;;3.80;;
18544;SDS011;9402;51.460;7.276;2023-04-24T10:33:57;11.03;;;3.30;;
18544;SDS011;9402;51.460;7.276;2023-04-24T10:36:00;14.23;;;3.90;;
18544;SDS011;9402;51.460;7.276;2023-04-24T10:38:03;9.43;;;3.70;;
18544;SDS011;9402;51.460;7.276;2023-04-24T10:40:09;10.90;;;4.23;;
18544;SDS011;9402;51.460;7.276;2023-04-24T10:42:13;11.27;;;4.87;;
18544;SDS011;9402;51.460;7.276;2023-04-24T10:44:16;13.10;;;4.67;;
18544;SDS011;9402;51.460;7.276;2023-04-24T10:46:19;9.63;;;4.10;;
18544;SDS011;9402;51.460;7.276;2023-04-24T10:48:25;14.13;;;4.47;;
18544;SDS011;9402;51.460;7.276;2023-04-24T10:50:29;13.53;;;5.33;;
18544;SDS011;9402;51.460;7.276;2023-04-24T10:52:44;13.73;;;6.00;;
18544;SDS011;9402;51.460;7.276;2023-04-24T10:54:47;16.53;;;6.23;;
18544;SDS011;9402;51.460;7.276;2023-04-24T10:56:51;12.27;;;5.53;;
18544;SDS011;9402;51.460;7.276;2023-04-24T10:58:53;18.37;;;6.10;;
18544;SDS011;9402;51.460;7.276;2023-04-24T11:00:56;14.90;;;5.50;;
18544;SDS011;9402;51.460;7.276;2023-04-24T11:02:59;23.80;;;5.80;;
18544;SDS011;9402;51.460;7.276;2023-04-24T11:05:02;20.10;;;6.80;;
18544;SDS011;9402;51.460;7.276;2023-04-24T11:07:05;15.00;;;5.70;;
18544;SDS011;9402;51.460;7.276;2023-04-24T11:09:08;18.03;;;5.87;;
18544;SDS011;9402;51.460;7.276;2023-04-24T11:11:13;18.47;;;7.40;;
18544;SDS011;9402;51.460;7.276;2023-04-24T11:13:17;25.97;;;6.37;;
18544;SDS011;9402;51.460;7.276;2023-04-24T11:15:23;20.20;;;7.07;;
18544;SDS011;9402;51.460;7.276;2023-04-24T11:17:29;21.27;;;6.90;;
18544;SDS011;9402;51.460;7.276;2023-04-24T11:19:32;23.60;;;6.70;;
18544;SDS011;9402;51.460;7.276;2023-04-24T11:21:40;24.93;;;5.90;;
18544;SDS011;9402;51.460;7.276;2023-04-24T11:23:43;21.00;;;6.37;;
18544;SDS011;9402;51.460;7.276;2023-04-24T11:25:52;21.60;;;6.27;;
18544;SDS011;9402;51.460;7.276;2023-04-24T11:28:14;24.20;;;7.37;;
18544;SDS011;9402;51.460;7.276;2023-04-24T11:30:19;16.70;;;6.27;;
18544;SDS011;9402;51.460;7.276;2023-04-24T11:32:25;17.13;;;6.40;;
18544;SDS011;9402;51.460;7.276;2023-04-24T11:34:29;23.37;;;6.87;;
18544;SDS011;9402;51.460;7.276;2023-04-24T11:36:31;23.83;;;6.90;;
18544;SDS011;9402;51.460;7.276;2023-04-24T11:38:34;27.20;;;7.30;;
18544;SDS011;9402;51.460;7.276;2023-04-24T11:40:36;21.43;;;7.07;;
18544;SDS011;9402;51.460;7.276;2023-04-24T11:42:39;21.43;;;8.23;;
18544;SDS011;9402;51.460;7.276;2023-04-24T11:44:42;28.20;;;8.53;;
18544;SDS011;9402;51.460;7.276;2023-04-24T11:46:48;23.23;;;7.13;;
18544;SDS011;9402;51.460;7.276;2023-04-24T11:48:51;19.83;;;7.50;;
18544;SDS011;9402;51.460;7.276;2023-04-24T11:50:53;17.70;;;5.70;;
18544;SDS011;9402;51.460;7.276;2023-04-24T11:52:55;23.97;;;7.57;;
18544;SDS011;9402;51.460;7.276;2023-04-24T11:55:00;23.60;;;7.20;;
18544;SDS011;9402;51.460;7.276;2023-04-24T11:57:03;32.80;;;7.73;;
18544;SDS011;9402;51.460;7.276;2023-04-24T11:59:07;28.17;;;8.40;;
18544;SDS011;9402;51.460;7.276;2023-04-24T12:01:09;22.23;;;6.90;;
18544;SDS011;9402;51.460;7.276;2023-04-24T12:03:13;21.03;;;6.70;;
18544;SDS011;9402;51.460;7.276;2023-04-24T12:05:18;22.30;;;7.03;;
18544;SDS011;9402;51.460;7.276;2023-04-24T12:07:22;24.67;;;5.80;;
18544;SDS011;9402;51.460;7.276;2023-04-24T12:09:24;28.90;;;5.83;;
18544;SDS011;9402;51.460;7.276;2023-04-24T12:11:27;25.60;;;6.03;;
18544;SDS011;9402;51.460;7.276;2023-04-24T12:13:29;19.37;;;5.47;;
18544;SDS011;9402;51.460;7.276;2023-04-24T12:15:32;17.73;;;4.90;;
18544;SDS011;9402;51.460;7.276;2023-04-24T12:17:35;24.57;;;5.60;;
18544;SDS011;9402;51.460;7.276;2023-04-24T12:19:44;20.87;;;5.10;;
18544;SDS011;9402;51.460;7.276;2023-04-24T12:21:58;18.63;;;5.20;;
18544;SDS011;9402;51.460;7.276;2023-04-24T12:24:01;16.47;;;4.30;;
18544;SDS011;9402;51.460;7.276;2023-04-24T12:26:07;23.80;;;5.53;;